Time;durP1;ratioP1;P1;durP2;ratioP2;P2;SDS_P1;SDS_P2;PMS_P1;PMS_P2;Temp;Humidity;BMP_temperature;BMP_pressure;BME280_temperature;BME280_humidity;BME280_pressure;Samples;Min_cycle;Max_cycle;Signal;HPM_P1;HPM_P2
2021/08/24 00:01:04;;;;;;;10.13;7.12;;;;;;;20.12;51.83;99681.05;1700255;83;21037;-44
2021/08/24 00:03:30;;;;;;;9.35;7.03;;;;;;;20.13;51.50;99685.38;1685925;84;21048;-44
2021/08/24 00:05:57;;;;;;;10.95;7.17;;;;;;;20.13;51.38;99682.63;1687614;82;21512;-44
2021/08/24 00:08:23;;;;;;;11.10;7.53;;;;;;;20.11;51.50;99681.46;1715083;82;21045;-44
2021/08/24 00:10:54;;;;;;;8.60;6.53;;;;;;;20.10;51.42;99682.06;1716262;83;21036;-44
2021/08/24 00:13:22;;;;;;;10.90;6.78;;;;;;;20.09;51.11;99681.11;1726990;82;21036;-44
2021/08/24 00:15:49;;;;;;;9.10;6.67;;;;;;;20.08;50.88;99678.95;1757020;80;21045;-44
2021/08/24 00:18:17;;;;;;;9.68;6.42;;;;;;;20.07;51.05;99669.14;1749926;82;21572;-44
2021/08/24 00:20:47;;;;;;;11.00;7.00;;;;;;;20.08;50.80;99674.05;1749253;80;21559;-44
2021/08/24 00:23:15;;;;;;;9.33;7.20;;;;;;;20.08;50.71;99674.83;1744419;81;21002;-44
2021/08/24 00:25:43;;;;;;;12.68;7.53;;;;;;;20.07;50.67;99674.64;1721381;83;21716;-44
2021/08/24 00:28:10;;;;;;;9.50;7.12;;;;;;;20.06;50.47;99670.33;1742190;82;20948;-44
2021/08/24 00:30:39;;;;;;;11.00;7.40;;;;;;;20.05;50.63;99664.63;1752312;81;21029;-44
2021/08/24 00:33:10;;;;;;;12.58;7.17;;;;;;;20.05;50.55;99661.88;1756610;81;21898;-44
2021/08/24 00:35:39;;;;;;;;;;;;;;;20.05;50.54;99659.13;1759043;81;21029;-44
2021/08/24 00:38:09;;;;;;;10.28;7.08;;;;;;;20.03;50.57;99658.78;1756500;81;20163;-44
2021/08/24 00:40:35;;;;;;;;;;;;;;;19.92;50.87;99656.77;1759889;81;20938;-44
2021/08/24 00:43:02;;;;;;;11.33;7.70;;;;;;;19.93;50.84;99656.36;1756345;81;20203;-44
2021/08/24 00:45:28;;;;;;;10.90;7.50;;;;;;;19.85;51.31;99654.11;1756680;81;21099;-44
2021/08/24 00:47:54;;;;;;;9.85;6.67;;;;;;;19.86;51.09;99655.08;1756322;81;20957;-44
2021/08/24 00:50:31;;;;;;;11.45;7.00;;;;;;;19.87;51.04;99648.39;1746865;80;21053;-44
2021/08/24 00:53:06;;;;;;;10.95;7.67;;;;;;;19.86;50.93;99648.80;1745313;81;21506;-44
2021/08/24 00:55:33;;;;;;;12.33;7.47;;;;;;;19.85;50.90;99650.77;1772650;81;21069;-44
2021/08/24 00:58:03;;;;;;;11.28;7.30;;;;;;;19.83;50.93;99645.50;1759369;81;21116;-44
2021/08/24 01:00:30;;;;;;;11.20;7.28;;;;;;;19.80;51.01;99647.09;1752125;80;28731;-44
2021/08/24 01:02:59;;;;;;;10.78;7.12;;;;;;;19.79;51.23;99646.16;1756530;81;21017;-44
2021/08/24 01:05:27;;;;;;;10.50;7.75;;;;;;;19.80;51.30;99646.34;1757294;81;21037;-44
2021/08/24 01:08:24;;;;;;;10.30;7.62;;;;;;;19.77;51.02;99649.31;1756619;81;21547;-44
2021/08/24 01:11:11;;;;;;;11.73;7.28;;;;;;;19.76;51.26;99646.38;1763433;81;21085;-44
2021/08/24 01:13:53;;;;;;;12.43;7.90;;;;;;;19.74;51.32;99638.36;1756499;81;20997;-44
2021/08/24 01:16:28;;;;;;;11.80;7.50;;;;;;;19.74;51.26;99641.12;1707381;84;20954;-44
2021/08/24 01:19:19;;;;;;;10.43;7.70;;;;;;;19.73;51.32;99639.55;1756539;81;21538;-44
2021/08/24 01:22:09;;;;;;;12.53;8.20;;;;;;;19.70;51.48;99632.14;1726846;82;20993;-44
2021/08/24 01:24:55;;;;;;;10.08;7.80;;;;;;;19.66;51.63;99633.54;1697716;82;21225;-44
2021/08/24 01:27:45;;;;;;;10.80;8.20;;;;;;;19.62;51.74;99634.19;1693890;82;20956;-44
2021/08/24 01:30:44;;;;;;;;;;;;;;;19.61;51.91;99631.84;1713995;83;21025;-44
2021/08/24 01:33:22;;;;;;;12.47;8.10;;;;;;;19.60;52.08;99626.97;1701833;84;20128;-44
2021/08/24 01:36:07;;;;;;;10.48;7.80;;;;;;;19.48;52.41;99628.28;1719351;83;21066;-44
2021/08/24 01:38:57;;;;;;;10.55;7.90;;;;;;;19.50;52.82;99623.16;1720556;83;21965;-44
2021/08/24 01:41:50;;;;;;;14.45;7.60;;;;;;;19.52;52.74;99633.14;1709160;82;21574;-44
2021/08/24 01:44:24;;;;;;;10.45;7.72;;;;;;;19.50;52.98;99630.04;1713709;82;21019;-44
2021/08/24 01:47:05;;;;;;;13.50;7.97;;;;;;;19.50;53.32;99631.41;1704064;83;21035;-44
2021/08/24 01:49:46;;;;;;;12.85;8.35;;;;;;;19.49;53.63;99638.69;1692292;83;21032;-44
2021/08/24 01:52:19;;;;;;;12.73;8.13;;;;;;;19.48;54.03;99637.91;1691293;84;21207;-44
2021/08/24 01:54:51;;;;;;;10.65;7.53;;;;;;;19.50;54.14;99636.91;1684621;83;21013;-44
2021/08/24 01:57:22;;;;;;;12.05;7.72;;;;;;;19.51;54.29;99622.54;1720541;83;20993;-44
2021/08/24 02:00:03;;;;;;;13.40;8.08;;;;;;;19.53;54.52;99618.80;1706598;82;21019;-44
2021/08/24 02:02:51;;;;;;;11.18;8.08;;;;;;;19.51;54.51;99612.92;1691654;84;21001;-44
2021/08/24 02:05:31;;;;;;;11.73;8.40;;;;;;;19.45;54.45;99614.00;1691799;84;21173;-44
2021/08/24 02:08:03;;;;;;;10.60;7.60;;;;;;;19.41;54.49;99605.58;1711882;82;21072;-44
2021/08/24 02:10:30;;;;;;;11.90;8.20;;;;;;;19.33;54.84;99604.87;1706831;82;21537;-44
2021/08/24 02:12:56;;;;;;;11.43;8.83;;;;;;;19.30;55.16;99603.56;1724117;82;21060;-44
2021/08/24 02:15:36;;;;;;;10.63;7.80;;;;;;;19.26;55.10;99607.73;1733368;82;21500;-44
2021/08/24 02:18:02;;;;;;;12.07;7.83;;;;;;;19.22;55.06;99608.34;1731257;82;21886;-44
2021/08/24 02:20:39;;;;;;;11.18;7.85;;;;;;;19.16;55.57;99606.48;1721916;82;21016;-44
2021/08/24 02:23:11;;;;;;;13.15;8.40;;;;;;;19.13;55.67;99606.69;1720626;83;20988;-44
2021/08/24 02:25:41;;;;;;;12.13;8.13;;;;;;;19.08;55.53;99597.52;1726449;82;20929;-44
2021/08/24 02:28:12;;;;;;;16.12;8.70;;;;;;;19.05;55.41;99598.36;1668156;84;21038;-44
2021/08/24 02:30:44;;;;;;;12.03;8.58;;;;;;;19.04;55.44;99594.05;1689171;84;21132;-46
2021/08/24 02:33:11;;;;;;;13.53;8.23;;;;;;;19.02;55.47;99589.58;1721106;83;20949;-44
2021/08/24 02:35:54;;;;;;;11.97;8.58;;;;;;;19.01;55.67;99593.50;1722011;82;22121;-44
2021/08/24 02:38:31;;;;;;;15.10;8.43;;;;;;;18.99;55.76;99587.63;1751098;82;21000;-44
2021/08/24 02:41:21;;;;;;;11.97;8.23;;;;;;;18.95;55.66;99585.52;1715039;83;20997;-44
2021/08/24 02:44:14;;;;;;;11.93;8.85;;;;;;;18.93;55.74;99583.77;1716134;82;21492;-44
2021/08/24 02:46:48;;;;;;;13.25;8.65;;;;;;;18.88;56.14;99584.24;1722461;82;20958;-44
2021/08/24 02:49:25;;;;;;;13.65;8.88;;;;;;;18.84;56.04;99586.22;1721219;82;20969;-44
2021/08/24 02:51:52;;;;;;;15.32;9.25;;;;;;;18.82;56.16;99583.91;1731205;82;21001;-44
2021/08/24 02:54:39;;;;;;;15.50;8.48;;;;;;;18.81;56.06;99580.19;1751565;82;21084;-44
2021/08/24 02:57:06;;;;;;;12.82;8.68;;;;;;;18.81;56.00;99576.06;1748260;81;21093;-44
2021/08/24 02:59:34;;;;;;;15.43;8.88;;;;;;;18.79;56.22;99580.58;1748153;80;20965;-44
2021/08/24 03:02:01;;;;;;;12.20;9.10;;;;;;;18.79;56.37;99584.70;1754898;80;21029;-44
2021/08/24 03:04:28;;;;;;;13.00;8.30;;;;;;;18.78;56.33;99579.64;1733702;81;21053;-44
2021/08/24 03:07:06;;;;;;;15.15;9.10;;;;;;;18.78;56.39;99585.92;1726809;81;21084;-44
2021/08/24 03:09:34;;;;;;;15.93;9.10;;;;;;;18.78;56.49;99589.25;1715386;83;21160;-44
2021/08/24 03:12:40;;;;;;;14.83;8.80;;;;;;;18.77;56.60;99589.84;1716327;82;20950;-44
2021/08/24 03:15:24;;;;;;;15.20;9.03;;;;;;;18.75;56.57;99585.94;1751467;81;21012;-44
2021/08/24 03:18:07;;;;;;;15.03;9.80;;;;;;;18.69;56.86;99586.97;1715779;82;20964;-44
2021/08/24 03:20:38;;;;;;;13.95;9.23;;;;;;;18.66;56.94;99587.20;1709307;83;21024;-44
2021/08/24 03:23:05;;;;;;;14.38;8.73;;;;;;;18.63;56.78;99579.80;1715828;82;21829;-44
2021/08/24 03:25:32;;;;;;;16.82;9.53;;;;;;;18.61;56.82;99583.53;1750988;81;21069;-44
2021/08/24 03:27:59;;;;;;;16.15;9.43;;;;;;;18.60;56.92;99583.34;1715450;82;21001;-44
2021/08/24 03:30:25;;;;;;;13.15;9.10;;;;;;;18.61;56.87;99589.02;1711618;83;21005;-44
2021/08/24 03:32:52;;;;;;;14.95;9.33;;;;;;;18.62;56.83;99589.21;1693956;83;21100;-44
2021/08/24 03:35:21;;;;;;;12.60;9.23;;;;;;;18.62;56.81;99583.72;1738053;81;21847;-44
2021/08/24 03:37:48;;;;;;;14.10;9.25;;;;;;;18.64;56.90;99589.56;1751107;81;20938;-44
2021/08/24 03:40:15;;;;;;;12.98;9.38;;;;;;;18.64;56.75;99589.56;1751328;82;21538;-44
2021/08/24 03:42:42;;;;;;;13.08;9.48;;;;;;;18.66;56.84;99591.91;1751302;82;20998;-44
2021/08/24 03:45:09;;;;;;;15.08;9.75;;;;;;;18.68;56.74;99585.44;1707846;83;21045;-44
2021/08/24 03:47:36;;;;;;;17.70;9.93;;;;;;;18.70;56.73;99591.88;1715868;82;21117;-44
2021/08/24 03:50:04;;;;;;;14.60;9.80;;;;;;;18.73;56.70;99593.23;1721073;83;21077;-44
2021/08/24 03:52:31;;;;;;;12.47;9.58;;;;;;;18.76;56.80;99590.24;1689731;83;22131;-44
2021/08/24 03:54:59;;;;;;;12.10;9.58;;;;;;;18.78;56.87;99587.88;1714924;83;21016;-44
2021/08/24 03:57:25;;;;;;;17.27;10.10;;;;;;;18.79;56.84;99588.05;1726694;82;21044;-44
2021/08/24 03:59:55;;;;;;;14.03;10.03;;;;;;;18.80;56.68;99586.27;1749374;80;20961;-44
2021/08/24 04:02:23;;;;;;;13.10;9.43;;;;;;;18.82;56.84;99589.41;1721199;83;20906;-44
2021/08/24 04:04:50;;;;;;;15.48;9.48;;;;;;;18.85;56.95;99594.06;1721274;83;21006;-44
2021/08/24 04:07:17;;;;;;;13.05;9.68;;;;;;;18.87;56.94;99588.95;1721125;82;21013;-44
2021/08/24 04:09:44;;;;;;;15.83;9.78;;;;;;;18.90;56.85;99588.13;1728703;81;21085;-44
2021/08/24 04:12:10;;;;;;;12.98;9.60;;;;;;;18.94;56.79;99587.48;1715450;82;21094;-44
2021/08/24 04:14:37;;;;;;;16.02;9.35;;;;;;;18.98;56.76;99589.59;1717336;82;21107;-44
2021/08/24 04:17:04;;;;;;;13.78;9.45;;;;;;;19.01;56.82;99586.05;1699092;82;21522;-44
2021/08/24 04:19:31;;;;;;;12.30;9.03;;;;;;;19.05;56.81;99587.36;1705414;82;21087;-43
2021/08/24 04:21:57;;;;;;;12.88;9.00;;;;;;;19.09;56.77;99594.38;1738912;80;20958;-44
2021/08/24 04:24:24;;;;;;;14.75;9.43;;;;;;;19.15;56.76;99584.30;1727463;80;21481;-44
2021/08/24 04:26:50;;;;;;;13.03;9.23;;;;;;;19.19;56.72;99584.44;1750924;82;21559;-44
2021/08/24 04:29:17;;;;;;;13.93;9.68;;;;;;;19.22;56.58;99583.61;1703102;82;21514;-44
2021/08/24 04:31:44;;;;;;;16.65;10.00;;;;;;;19.14;56.55;99569.00;1688675;82;21073;-44
2021/08/24 04:34:11;;;;;;;19.40;12.30;;;;;;;19.32;56.56;99584.07;1721102;83;21084;-44
2021/08/24 04:36:38;;;;;;;21.68;14.20;;;;;;;19.40;56.48;99589.68;1739010;82;21159;-44
2021/08/24 04:39:05;;;;;;;19.23;14.00;;;;;;;19.44;56.35;99591.81;1749568;82;21538;-44
2021/08/24 04:41:32;;;;;;;24.10;14.25;;;;;;;19.52;56.35;99596.02;1750944;82;21047;-44
2021/08/24 04:47:02;;;;;;;22.07;13.85;;;;;;;19.69;56.87;99601.69;1779262;79;22660;-43
2021/08/24 04:49:29;;;;;;;19.75;13.88;;;;;;;19.73;57.24;99603.79;1755027;81;20936;-44
2021/08/24 04:51:55;;;;;;;20.15;14.33;;;;;;;19.86;57.23;99604.77;1756936;80;21480;-44
2021/08/24 04:54:22;;;;;;;21.73;14.75;;;;;;;20.01;56.74;99603.36;1734338;81;21756;-44
2021/08/24 04:56:49;;;;;;;21.55;13.90;;;;;;;20.11;56.91;99605.77;1756857;81;21093;-44
2021/08/24 04:59:16;;;;;;;16.32;11.70;;;;;;;20.22;56.66;99608.55;1757483;80;20894;-44
2021/08/24 05:01:42;;;;;;;17.67;11.53;;;;;;;20.33;56.47;99607.78;1765932;80;21526;-44
2021/08/24 05:04:09;;;;;;;18.17;11.40;;;;;;;20.46;56.23;99607.19;1738793;80;21093;-44
2021/08/24 05:06:36;;;;;;;17.02;11.57;;;;;;;20.54;55.90;99609.98;1747571;80;21001;-44
2021/08/24 05:09:02;;;;;;;16.17;11.03;;;;;;;20.61;55.93;99612.64;1773479;80;20993;-44
2021/08/24 05:11:29;;;;;;;15.23;10.68;;;;;;;20.65;56.03;99607.83;1754795;80;20991;-44
2021/08/24 05:13:55;;;;;;;15.90;10.88;;;;;;;20.72;55.78;99606.34;1791573;80;21026;-45
2021/08/24 05:16:22;;;;;;;15.65;11.22;;;;;;;20.77;55.76;99607.20;1768904;80;21334;-44
2021/08/24 05:18:49;;;;;;;15.18;11.95;;;;;;;20.83;55.39;99608.28;1757185;81;21008;-44
2021/08/24 05:21:15;;;;;;;19.05;11.83;;;;;;;20.84;55.46;99600.20;1762717;80;20885;-44
2021/08/24 05:23:44;;;;;;;16.73;11.10;;;;;;;20.86;55.30;99601.94;1767075;80;20941;-44
2021/08/24 05:26:15;;;;;;;16.60;11.12;;;;;;;20.85;55.35;99599.00;1741949;80;21032;-44
2021/08/24 05:28:42;;;;;;;14.13;10.93;;;;;;;20.87;55.46;99600.72;1755323;81;21566;-45
2021/08/24 05:31:09;;;;;;;15.60;11.33;;;;;;;20.87;55.48;99596.58;1743284;81;20973;-45
2021/08/24 05:33:36;;;;;;;17.02;11.48;;;;;;;20.89;55.18;99596.17;1750566;80;21033;-45
2021/08/24 05:36:04;;;;;;;15.20;11.43;;;;;;;20.92;55.35;99591.95;1750714;80;21008;-45
2021/08/24 05:38:32;;;;;;;17.10;11.83;;;;;;;20.94;55.29;99600.59;1730049;82;21011;-44
2021/08/24 05:40:58;;;;;;;14.80;11.12;;;;;;;20.97;55.46;99592.84;1695875;82;21856;-44
2021/08/24 05:43:25;;;;;;;14.73;10.88;;;;;;;21.04;55.07;99594.70;1683442;82;21013;-44
2021/08/24 05:46:03;;;;;;;17.98;11.22;;;;;;;21.11;55.02;99594.53;1717903;82;21042;-44
2021/08/24 05:48:30;;;;;;;15.80;10.20;;;;;;;21.17;54.83;99590.91;1703184;82;21288;-44
2021/08/24 05:50:58;;;;;;;14.90;11.08;;;;;;;21.28;54.59;99589.91;1702556;83;21073;-44
2021/08/24 05:53:25;;;;;;;15.55;10.35;;;;;;;21.33;54.08;99583.89;1702236;84;21212;-44
2021/08/24 05:55:51;;;;;;;15.53;10.25;;;;;;;21.42;53.65;99585.46;1726004;82;20988;-44
2021/08/24 05:58:18;;;;;;;14.03;9.13;;;;;;;21.50;52.94;99589.61;1697810;83;21130;-45
2021/08/24 06:00:45;;;;;;;15.72;9.43;;;;;;;21.55;52.85;99583.59;1723566;82;20982;-45
2021/08/24 06:03:12;;;;;;;14.40;9.55;;;;;;;21.62;52.28;99587.59;1710355;83;21546;-44
2021/08/24 06:05:40;;;;;;;13.40;8.75;;;;;;;21.69;52.11;99586.81;1676546;82;21606;-44
2021/08/24 06:08:06;;;;;;;12.00;8.30;;;;;;;21.77;52.27;99591.58;1712228;82;20996;-44
2021/08/24 06:10:39;;;;;;;10.90;8.10;;;;;;;21.82;50.28;99586.94;1690571;83;21048;-44
2021/08/24 06:13:07;;;;;;;12.45;8.53;;;;;;;21.85;50.67;99589.42;1719620;83;20988;-44
2021/08/24 06:15:34;;;;;;;10.80;7.80;;;;;;;21.92;51.06;99587.29;1717532;83;21506;-44
2021/08/24 06:18:01;;;;;;;11.48;7.00;;;;;;;22.02;49.96;99593.20;1719371;83;21127;-44
2021/08/24 06:20:27;;;;;;;12.18;8.33;;;;;;;22.07;49.33;99594.03;1719533;83;20996;-45
2021/08/24 06:22:54;;;;;;;10.85;8.18;;;;;;;22.15;49.48;99593.88;1711600;83;21556;-44
2021/08/24 06:25:22;;;;;;;12.28;8.25;;;;;;;22.22;49.59;99593.71;1703055;83;21545;-44
2021/08/24 06:27:50;;;;;;;11.63;7.80;;;;;;;22.30;49.16;99590.33;1702059;84;21085;-43
2021/08/24 06:30:18;;;;;;;11.53;8.38;;;;;;;22.41;49.46;99592.20;1702012;84;21639;-43
2021/08/24 06:32:53;;;;;;;11.25;8.20;;;;;;;22.50;49.69;99582.72;1702245;84;21031;-43
2021/08/24 06:35:22;;;;;;;10.30;7.65;;;;;;;22.60;49.95;99582.27;1712827;83;20976;-43
2021/08/24 06:37:49;;;;;;;11.70;7.30;;;;;;;22.69;49.08;99585.17;1722023;82;21028;-43
2021/08/24 06:40:18;;;;;;;10.93;7.28;;;;;;;22.75;48.61;99580.67;1711717;83;21132;-43
2021/08/24 06:42:49;;;;;;;11.48;7.95;;;;;;;22.80;48.68;99579.39;1715321;83;21123;-43
2021/08/24 06:45:26;;;;;;;10.48;7.85;;;;;;;22.87;49.04;99571.67;1706479;82;21023;-44
2021/08/24 06:47:52;;;;;;;15.18;7.80;;;;;;;22.95;49.16;99564.72;1681708;85;20937;-43
2021/08/24 06:50:20;;;;;;;10.45;7.10;;;;;;;23.03;48.58;99572.22;1674673;84;21051;-43
2021/08/24 06:52:47;;;;;;;11.18;7.40;;;;;;;23.08;47.80;99569.52;1675033;85;21541;-43
2021/08/24 06:55:14;;;;;;;12.73;7.65;;;;;;;23.10;47.81;99567.86;1681898;85;21090;-43
2021/08/24 06:57:41;;;;;;;10.20;7.30;;;;;;;23.16;48.02;99566.71;1699587;83;21024;-43
2021/08/24 07:00:16;;;;;;;9.78;7.28;;;;;;;23.17;48.09;99566.88;1710623;83;20964;-43
2021/08/24 07:02:43;;;;;;;10.60;7.90;;;;;;;23.19;48.10;99570.00;1689242;83;21088;-43
2021/08/24 07:05:10;;;;;;;10.72;7.50;;;;;;;23.20;47.93;99565.99;1710528;83;21567;-43
2021/08/24 07:07:36;;;;;;;10.35;7.75;;;;;;;23.24;48.50;99567.44;1710599;83;21534;-43
2021/08/24 07:10:05;;;;;;;9.08;7.50;;;;;;;23.31;48.57;99575.55;1710459;82;21071;-43
2021/08/24 07:12:31;;;;;;;12.23;7.65;;;;;;;23.35;48.66;99565.75;1724091;82;21042;-43
2021/08/24 07:14:59;;;;;;;9.83;7.35;;;;;;;23.42;48.43;99558.63;1733002;82;20939;-43
2021/08/24 07:17:26;;;;;;;11.10;7.37;;;;;;;23.49;48.06;99561.80;1733218;82;21043;-43
2021/08/24 07:19:53;;;;;;;9.35;7.47;;;;;;;23.55;47.46;99555.28;1732995;82;21135;-43
2021/08/24 07:22:20;;;;;;;11.83;7.67;;;;;;;23.62;46.97;99559.23;1717632;82;21030;-43
2021/08/24 07:24:47;;;;;;;14.50;7.92;;;;;;;23.72;46.82;99562.89;1712374;82;21557;-43
2021/08/24 07:27:13;;;;;;;10.00;7.00;;;;;;;23.79;46.53;99566.80;1710482;82;21024;-43
2021/08/24 07:29:40;;;;;;;11.15;7.40;;;;;;;23.86;46.89;99561.05;1689600;83;21046;-43
2021/08/24 07:32:08;;;;;;;9.78;7.30;;;;;;;23.99;46.52;99567.95;1682008;83;21119;-43
2021/08/24 07:34:37;;;;;;;12.55;7.47;;;;;;;24.08;46.67;99560.51;1682024;85;21012;-43
2021/08/24 07:37:03;;;;;;;9.95;7.22;;;;;;;24.21;46.34;99564.05;1682139;85;20952;-43
2021/08/24 07:39:30;;;;;;;9.95;7.28;;;;;;;24.34;45.49;99564.03;1681867;83;21553;-43
2021/08/24 07:41:57;;;;;;;11.83;7.20;;;;;;;24.49;45.43;99553.23;1683880;83;21090;-43
2021/08/24 07:44:26;;;;;;;11.22;7.03;;;;;;;24.60;45.54;99568.25;1682130;85;21140;-43
2021/08/24 07:46:53;;;;;;;11.65;7.15;;;;;;;24.74;44.58;99556.52;1715467;80;20973;-43
2021/08/24 07:49:19;;;;;;;8.63;6.92;;;;;;;24.90;44.83;99556.34;1743118;80;21029;-43
2021/08/24 07:51:46;;;;;;;10.55;7.03;;;;;;;25.06;43.38;99566.64;1736745;80;21023;-43
2021/08/24 07:54:13;;;;;;;9.13;7.15;;;;;;;25.18;43.13;99556.67;1678691;85;21081;-43
2021/08/24 07:56:40;;;;;;;10.38;7.37;;;;;;;25.27;43.24;99552.56;1726647;80;21475;-43
2021/08/24 07:59:07;;;;;;;9.18;7.08;;;;;;;25.36;43.10;99547.09;1766519;80;20965;-43
2021/08/24 08:01:34;;;;;;;10.63;7.35;;;;;;;25.43;42.76;99548.80;1739553;80;21020;-43
2021/08/24 08:04:00;;;;;;;11.12;6.85;;;;;;;25.51;41.70;99542.50;1678667;85;21037;-43
2021/08/24 08:06:27;;;;;;;8.98;6.92;;;;;;;25.62;42.55;99539.95;1679484;84;21619;-43
2021/08/24 08:08:54;;;;;;;12.73;7.08;;;;;;;25.76;42.01;99541.55;1719771;82;21096;-45
2021/08/24 08:11:21;;;;;;;7.30;6.05;;;;;;;25.91;41.80;99533.41;1729370;82;20970;-43
2021/08/24 08:13:49;;;;;;;8.68;6.42;;;;;;;26.07;41.40;99537.32;1691749;84;21040;-44
2021/08/24 08:16:18;;;;;;;7.78;6.00;;;;;;;26.22;41.39;99542.47;1677319;84;20993;-44
2021/08/24 08:18:45;;;;;;;7.45;5.50;;;;;;;26.37;40.39;99539.86;1669441;84;21013;-44
2021/08/24 08:21:12;;;;;;;9.40;6.33;;;;;;;26.48;39.21;99531.81;1705109;82;21187;-44
2021/08/24 08:23:39;;;;;;;11.22;5.78;;;;;;;26.61;39.68;99541.41;1706656;82;21028;-44
2021/08/24 08:26:06;;;;;;;8.68;5.50;;;;;;;26.71;38.37;99522.88;1724281;82;21575;-44
2021/08/24 08:28:33;;;;;;;7.58;5.78;;;;;;;26.78;37.26;99525.94;1720271;82;21005;-44
2021/08/24 08:31:01;;;;;;;8.85;5.22;;;;;;;26.79;37.86;99519.14;1705920;82;21072;-44
2021/08/24 08:33:28;;;;;;;7.08;4.75;;;;;;;26.82;37.21;99509.85;1708679;82;21123;-43
2021/08/24 08:35:54;;;;;;;6.47;4.90;;;;;;;26.88;37.69;99514.98;1730792;82;21069;-44
2021/08/24 08:38:22;;;;;;;5.80;4.67;;;;;;;26.92;36.31;99507.23;1719006;82;21542;-44
2021/08/24 08:40:57;;;;;;;6.30;4.63;;;;;;;26.99;35.78;99508.31;1732850;82;20986;-44
2021/08/24 08:43:35;;;;;;;7.70;5.30;;;;;;;27.08;36.19;99504.12;1709085;82;21301;-44
2021/08/24 08:46:33;;;;;;;5.72;4.70;;;;;;;27.23;36.03;99505.00;1710179;81;21477;-44
2021/08/24 08:49:26;;;;;;;6.80;4.62;;;;;;;27.38;34.78;99505.11;1724971;82;21000;-44
2021/08/24 08:52:17;;;;;;;6.15;4.67;;;;;;;27.43;34.29;99510.03;1711318;82;21025;-44
2021/08/24 08:55:01;;;;;;;7.35;4.90;;;;;;;27.44;34.79;99505.24;1707420;82;21595;-44
2021/08/24 08:57:55;;;;;;;8.50;4.85;;;;;;;27.51;35.10;99499.34;1732337;82;21002;-44
2021/08/24 09:00:26;;;;;;;8.08;4.70;;;;;;;27.65;35.98;99498.03;1710197;82;21492;-44
2021/08/24 09:03:15;;;;;;;8.90;4.67;;;;;;;27.81;34.79;99490.52;1706546;82;21040;-44
2021/08/24 09:05:42;;;;;;;5.22;4.53;;;;;;;27.90;34.25;99491.23;1706060;82;21088;-44
2021/08/24 09:08:09;;;;;;;5.92;4.25;;;;;;;27.82;33.99;99492.07;1690431;83;21009;-44
2021/08/24 09:10:45;;;;;;;4.95;3.92;;;;;;;27.68;33.88;99493.55;1717876;82;21014;-44
2021/08/24 09:13:26;;;;;;;6.47;4.00;;;;;;;27.52;33.80;99493.93;1720471;82;21069;-44
2021/08/24 09:16:13;;;;;;;6.80;4.12;;;;;;;27.39;34.85;99503.09;1722887;82;21061;-44
2021/08/24 09:19:10;;;;;;;5.15;3.77;;;;;;;27.29;34.34;99491.84;1649687;83;21028;-44
2021/08/24 09:21:41;;;;;;;4.70;3.90;;;;;;;27.19;34.95;99489.09;1718091;82;21311;-44
2021/08/24 09:24:15;;;;;;;4.90;4.05;;;;;;;27.15;35.18;99496.07;1715760;82;20999;-44
2021/08/24 09:27:04;;;;;;;6.03;4.12;;;;;;;27.11;35.58;99486.47;1734121;82;21110;-44
2021/08/24 09:29:40;;;;;;;4.90;3.83;;;;;;;27.09;35.13;99490.98;1705665;84;21042;-44
2021/08/24 09:32:08;;;;;;;5.17;3.55;;;;;;;27.04;34.79;99486.81;1705580;82;21020;-44
2021/08/24 09:34:39;;;;;;;5.92;3.72;;;;;;;26.96;35.26;99482.83;1706142;82;21030;-44
2021/08/24 09:37:05;;;;;;;6.62;4.12;;;;;;;26.93;34.86;99486.53;1733638;82;21050;-44
2021/08/24 09:39:58;;;;;;;4.87;3.87;;;;;;;26.88;34.64;99494.11;1734691;82;22295;-44
2021/08/24 09:42:44;;;;;;;6.17;3.85;;;;;;;26.86;35.15;99493.02;1721459;82;21626;-44
2021/08/24 09:45:27;;;;;;;6.33;4.00;;;;;;;26.86;34.77;99486.88;1693120;82;22254;-44
2021/08/24 09:48:02;;;;;;;5.80;3.95;;;;;;;26.91;35.63;99486.86;1735261;82;20981;-44
2021/08/24 09:50:32;;;;;;;5.00;3.90;;;;;;;26.96;35.34;99487.00;1742202;82;21551;-44
2021/08/24 09:52:59;;;;;;;6.25;4.40;;;;;;;27.04;35.90;99479.86;1732470;81;21705;-44
2021/08/24 09:55:27;;;;;;;9.83;4.50;;;;;;;27.15;34.94;99480.14;1733132;82;20938;-44
2021/08/24 09:58:01;;;;;;;5.15;4.10;;;;;;;27.28;35.06;99486.89;1713852;82;21057;-43
2021/08/24 10:00:55;;;;;;;5.12;3.75;;;;;;;27.34;34.31;99471.09;1718396;82;21125;-44
2021/08/24 10:03:34;;;;;;;4.50;3.52;;;;;;;27.42;35.09;99475.69;1712328;82;21049;-44
2021/08/24 10:06:26;;;;;;;5.20;3.80;;;;;;;27.51;34.32;99466.70;1713470;82;21851;-44
2021/08/24 10:08:55;;;;;;;6.70;3.90;;;;;;;27.62;34.63;99460.61;1723686;82;20926;-44
2021/08/24 10:11:36;;;;;;;7.33;3.77;;;;;;;27.72;32.62;99462.73;1715116;82;21033;-44
2021/08/24 10:14:23;;;;;;;5.45;3.67;;;;;;;27.79;32.83;99460.34;1717908;80;21009;-44
2021/08/24 10:16:56;;;;;;;4.17;3.30;;;;;;;27.78;32.52;99456.03;1736869;82;21072;-44
2021/08/24 10:19:31;;;;;;;5.90;3.75;;;;;;;27.75;33.34;99458.36;1736210;82;21064;-44
2021/08/24 10:22:09;;;;;;;5.05;3.30;;;;;;;27.78;33.28;99451.09;1728110;80;21005;-44
2021/08/24 10:24:39;;;;;;;6.17;3.50;;;;;;;27.94;32.82;99448.63;1742905;82;21021;-44
2021/08/24 10:27:31;;;;;;;4.87;3.95;;;;;;;28.18;32.29;99454.83;1723150;82;21530;-44
2021/08/24 10:30:04;;;;;;;7.85;4.08;;;;;;;28.47;31.15;99438.92;1713522;82;20990;-44
2021/08/24 10:32:39;;;;;;;4.65;3.40;;;;;;;28.90;30.64;99449.97;1711625;83;21137;-44
2021/08/24 10:35:16;;;;;;;5.33;3.58;;;;;;;29.27;30.22;99436.98;1714669;82;21022;-44
2021/08/24 10:37:48;;;;;;;5.53;3.40;;;;;;;29.61;29.67;99434.84;1713631;82;22229;-44
2021/08/24 10:40:37;;;;;;;4.70;3.22;;;;;;;29.85;29.23;99426.88;1714516;82;20973;-44
2021/08/24 10:43:15;;;;;;;6.67;3.80;;;;;;;29.90;29.15;99429.78;1718291;82;21045;-44
2021/08/24 10:46:09;;;;;;;6.67;3.60;;;;;;;29.94;28.82;99424.74;1712808;83;21598;-44
2021/08/24 10:48:35;;;;;;;5.47;3.60;;;;;;;29.99;28.70;99419.08;1720235;82;20942;-44
2021/08/24 10:51:20;;;;;;;4.37;3.40;;;;;;;30.03;28.97;99423.83;1705653;82;21041;-44
2021/08/24 10:54:15;;;;;;;6.75;3.83;;;;;;;30.10;29.14;99419.98;1719421;82;20966;-44
2021/08/24 10:57:00;;;;;;;5.17;3.47;;;;;;;30.18;29.10;99416.13;1734528;82;21576;-44
2021/08/24 10:59:48;;;;;;;5.20;3.55;;;;;;;30.22;28.08;99420.86;1729738;82;21955;-44
2021/08/24 11:02:42;;;;;;;4.42;3.17;;;;;;;30.15;28.74;99411.52;1721937;82;21593;-44
2021/08/24 11:05:41;;;;;;;6.70;3.25;;;;;;;30.13;28.89;99411.23;1710534;82;21058;-44
2021/08/24 11:08:51;;;;;;;5.17;3.60;;;;;;;30.08;28.36;99424.52;1713995;82;21566;-44
2021/08/24 11:11:52;;;;;;;5.75;3.45;;;;;;;29.97;27.99;99410.41;1712254;82;21124;-44
2021/08/24 11:14:54;;;;;;;6.92;3.52;;;;;;;29.84;28.09;99404.38;1721719;82;21155;-44
2021/08/24 11:17:35;;;;;;;5.10;3.40;;;;;;;29.66;27.73;99399.22;1705467;84;20965;-44
2021/08/24 11:20:22;;;;;;;5.65;3.45;;;;;;;29.48;28.44;99402.92;1719685;82;21496;-44
2021/08/24 11:23:09;;;;;;;3.62;2.92;;;;;;;29.35;28.96;99411.61;1690477;82;21064;-44
2021/08/24 11:25:55;;;;;;;5.20;3.35;;;;;;;29.19;28.77;99403.75;1697342;83;21515;-44
2021/08/24 11:28:59;;;;;;;5.78;3.20;;;;;;;29.01;29.48;99413.11;1722312;82;21845;-44
2021/08/24 11:31:34;;;;;;;5.35;3.65;;;;;;;28.82;29.13;99412.55;1706394;82;21013;-44
2021/08/24 11:34:22;;;;;;;5.45;3.50;;;;;;;28.63;29.19;99409.80;1718809;82;21085;-44
2021/08/24 11:37:11;;;;;;;8.20;3.37;;;;;;;28.51;28.89;99411.61;1705810;82;21029;-44
2021/08/24 11:40:00;;;;;;;4.35;3.40;;;;;;;28.30;28.87;99409.20;1705873;82;21018;-44
2021/08/24 11:42:38;;;;;;;8.53;3.45;;;;;;;28.10;30.26;99407.02;1714067;82;21995;-44
2021/08/24 11:45:10;;;;;;;5.80;3.45;;;;;;;27.96;29.44;99407.14;1716714;82;20963;-44
2021/08/24 11:47:53;;;;;;;7.90;3.25;;;;;;;27.84;30.02;99409.54;1700534;82;21015;-44
2021/08/24 11:50:34;;;;;;;5.53;3.05;;;;;;;27.77;30.05;99401.56;1717569;82;20966;-43
2021/08/24 11:53:13;;;;;;;6.45;3.40;;;;;;;27.72;30.19;99408.41;1699365;83;21077;-44
2021/08/24 11:55:42;;;;;;;5.10;2.95;;;;;;;27.65;30.14;99401.16;1720300;82;21985;-43
2021/08/24 11:58:42;;;;;;;5.25;2.90;;;;;;;27.57;30.74;99402.77;1725957;82;21516;-44
2021/08/24 12:01:09;;;;;;;4.50;3.27;;;;;;;27.52;31.45;99400.64;1728592;82;21021;-44